Time;durP1;ratioP1;P1;durP2;ratioP2;P2;SDS_P1;SDS_P2;PMS_P1;PMS_P2;Temp;Humidity;BMP_temperature;BMP_pressure;BME280_temperature;BME280_humidity;BME280_pressure;Samples;Min_cycle;Max_cycle;Signal;HPM_P1;HPM_P2
2022/05/09 00:02:20;;;;;;;7.65;2.00;;;11.30;88.00;;;;;;5107907;28;20095;-41
2022/05/09 00:04:46;;;;;;;5.95;2.08;;;11.30;88.00;;;;;;5098167;28;20544;-40
2022/05/09 00:07:12;;;;;;;7.72;2.20;;;11.30;88.30;;;;;;5105329;28;20027;-41
2022/05/09 00:09:37;;;;;;;6.47;2.10;;;11.20;88.50;;;;;;5100449;28;20027;-41
2022/05/09 00:12:04;;;;;;;6.72;2.10;;;11.20;88.60;;;;;;5103276;28;20026;-42
2022/05/09 00:14:29;;;;;;;5.20;2.00;;;11.10;88.60;;;;;;5101714;28;20038;-40
2022/05/09 00:16:55;;;;;;;5.35;1.90;;;11.10;88.70;;;;;;5100820;28;20028;-41
2022/05/09 00:19:21;;;;;;;7.60;2.20;;;11.10;88.90;;;;;;5105715;28;20028;-41
2022/05/09 00:21:49;;;;;;;8.15;1.92;;;11.10;89.00;;;;;;5096575;28;20027;-41
2022/05/09 00:24:17;;;;;;;6.75;1.90;;;11.10;89.20;;;;;;5106425;28;20024;-40
2022/05/09 00:26:46;;;;;;;5.18;2.00;;;11.10;89.20;;;;;;5095841;28;20110;-43
2022/05/09 00:29:13;;;;;;;4.43;1.80;;;11.10;89.20;;;;;;5105225;28;20031;-40
2022/05/09 00:31:40;;;;;;;7.38;1.95;;;11.00;89.60;;;;;;5096384;28;20024;-41
2022/05/09 00:34:07;;;;;;;4.90;2.00;;;11.00;89.50;;;;;;5107972;28;20019;-43
2022/05/09 00:36:33;;;;;;;6.25;1.92;;;11.00;89.50;;;;;;5098076;28;20413;-40
2022/05/09 00:39:01;;;;;;;4.18;1.67;;;11.00;89.60;;;;;;5087891;28;20038;-41
2022/05/09 00:41:31;;;;;;;7.57;1.95;;;11.00;89.80;;;;;;5098629;28;20059;-41
2022/05/09 00:43:58;;;;;;;5.93;1.85;;;11.00;89.80;;;;;;5087567;28;20578;-41
2022/05/09 00:46:24;;;;;;;7.20;2.45;;;11.00;89.90;;;;;;5099668;28;20015;-40
2022/05/09 00:48:50;;;;;;;5.85;1.80;;;10.90;90.00;;;;;;5087343;28;20032;-41
2022/05/09 00:51:23;;;;;;;10.32;2.70;;;10.90;90.10;;;;;;5095971;28;20223;-41
2022/05/09 00:53:50;;;;;;;5.55;1.88;;;10.80;90.20;;;;;;5088939;28;20032;-40
2022/05/09 00:56:29;;;;;;;6.53;2.20;;;10.80;90.20;;;;;;5093475;28;20841;-41
2022/05/09 00:59:02;;;;;;;7.18;2.00;;;10.80;90.20;;;;;;5106390;28;20035;-40
2022/05/09 01:01:28;;;;;;;6.50;2.10;;;10.80;90.30;;;;;;5097700;28;20020;-42
2022/05/09 01:04:07;;;;;;;7.72;2.40;;;10.70;90.30;;;;;;5101599;28;20176;-39
2022/05/09 01:06:33;;;;;;;9.80;2.42;;;10.70;90.50;;;;;;5099161;28;20058;-41
2022/05/09 01:08:58;;;;;;;3.67;1.70;;;10.70;90.50;;;;;;5102391;28;20051;-39
2022/05/09 01:11:27;;;;;;;7.88;2.58;;;10.60;90.50;;;;;;5100832;28;20024;-42
2022/05/09 01:14:25;;;;;;;5.45;2.10;;;10.60;90.60;;;;;;5099774;28;20059;-41
2022/05/09 01:16:51;;;;;;;8.80;2.63;;;10.60;90.70;;;;;;5065195;28;20543;-42
2022/05/09 01:19:41;;;;;;;9.25;2.30;;;10.60;90.70;;;;;;5101296;28;20044;-41
2022/05/09 01:22:22;;;;;;;4.05;1.75;;;10.60;90.80;;;;;;5098968;28;20110;-41
2022/05/09 01:24:48;;;;;;;7.57;2.42;;;10.50;90.70;;;;;;5103205;28;20684;-40
2022/05/09 01:27:14;;;;;;;6.00;2.20;;;10.50;90.80;;;;;;5098417;28;20487;-40
2022/05/09 01:29:49;;;;;;;7.18;2.20;;;10.50;90.90;;;;;;5100972;28;20027;-42
2022/05/09 01:32:19;;;;;;;5.05;2.33;;;10.50;90.90;;;;;;5098767;28;20036;-41
2022/05/09 01:34:52;;;;;;;8.50;3.03;;;10.50;90.90;;;;;;5100160;28;20031;-42
2022/05/09 01:37:19;;;;;;;;;;;10.50;91.00;;;;;;5101241;28;20107;-42
2022/05/09 01:39:44;;;;;;;3.30;1.60;;;10.50;91.00;;;;;;5097902;28;20017;-41
2022/05/09 01:42:10;;;;;;;4.50;1.60;;;10.40;91.00;;;;;;5102789;28;20067;-42
2022/05/09 01:44:37;;;;;;;4.93;2.00;;;10.40;91.00;;;;;;5095565;28;20076;-40
2022/05/09 01:49:51;;;;;;;6.35;2.20;;;10.40;91.20;;;;;;5086572;28;20382;-41
2022/05/09 01:52:18;;;;;;;7.75;2.22;;;10.40;91.20;;;;;;5103812;28;20028;-40
2022/05/09 01:54:44;;;;;;;6.18;2.22;;;10.30;91.20;;;;;;5095044;28;20028;-40
2022/05/09 01:57:12;;;;;;;8.23;2.25;;;10.30;91.30;;;;;;5103862;28;20106;-41
2022/05/09 01:59:38;;;;;;;6.03;2.38;;;10.30;91.40;;;;;;5093330;28;20042;-41
2022/05/09 02:02:18;;;;;;;6.75;2.30;;;10.30;91.40;;;;;;5105698;28;20039;-41
2022/05/09 02:04:44;;;;;;;7.72;2.03;;;10.30;91.50;;;;;;5093406;28;20736;-41
2022/05/09 02:07:13;;;;;;;4.90;1.95;;;10.20;91.50;;;;;;5084157;28;20489;-41
2022/05/09 02:09:43;;;;;;;10.25;3.10;;;10.20;91.60;;;;;;5092245;28;20141;-41
2022/05/09 02:12:10;;;;;;;6.15;2.30;;;10.20;91.70;;;;;;5105309;28;20858;-41
2022/05/09 02:14:36;;;;;;;8.90;2.65;;;10.20;91.70;;;;;;5091799;28;20027;-41
2022/05/09 02:17:02;;;;;;;6.07;2.47;;;10.20;91.80;;;;;;5105592;28;20019;-41
2022/05/09 02:19:28;;;;;;;5.88;2.05;;;10.10;91.80;;;;;;5093848;28;20139;-41
2022/05/09 02:21:53;;;;;;;6.80;2.13;;;10.10;91.80;;;;;;5104263;28;20616;-41
2022/05/09 02:24:19;;;;;;;5.60;2.33;;;10.10;91.90;;;;;;5096140;28;20685;-42
2022/05/09 02:26:45;;;;;;;5.28;1.67;;;10.10;91.90;;;;;;5101280;28;20019;-42
2022/05/09 02:29:10;;;;;;;3.78;1.73;;;10.10;91.90;;;;;;5097748;28;20502;-43
2022/05/09 02:31:36;;;;;;;7.88;2.63;;;10.00;91.90;;;;;;5098683;28;20032;-40
2022/05/09 02:34:01;;;;;;;7.13;2.17;;;10.00;92.00;;;;;;5100339;28;20027;-42
2022/05/09 02:36:27;;;;;;;4.32;2.05;;;10.00;92.00;;;;;;5095505;28;20015;-42
2022/05/09 02:38:53;;;;;;;6.60;2.33;;;10.00;92.10;;;;;;5103510;28;20092;-41
2022/05/09 02:41:19;;;;;;;7.50;2.13;;;10.00;92.10;;;;;;5092581;28;20023;-42
2022/05/09 02:43:44;;;;;;;5.47;2.17;;;10.00;92.20;;;;;;5103092;28;20118;-41
2022/05/09 02:46:11;;;;;;;6.70;2.30;;;10.00;92.20;;;;;;5093443;28;20015;-41
2022/05/09 02:48:37;;;;;;;7.63;2.40;;;9.90;92.30;;;;;;5103968;28;20051;-42
2022/05/09 02:51:08;;;;;;;4.88;2.08;;;9.90;92.30;;;;;;5096689;28;20027;-41
2022/05/09 02:53:34;;;;;;;3.13;1.90;;;9.90;92.30;;;;;;5084362;28;20111;-41
2022/05/09 02:56:00;;;;;;;6.63;2.45;;;9.90;92.40;;;;;;5096220;28;20027;-41
2022/05/09 02:58:26;;;;;;;5.10;1.92;;;9.80;92.40;;;;;;5096777;28;20035;-40
2022/05/09 03:00:51;;;;;;;5.45;1.88;;;9.80;92.40;;;;;;5093269;28;20101;-40
2022/05/09 03:06:01;;;;;;;7.78;2.30;;;9.70;92.40;;;;;;5092961;28;20866;-40
2022/05/09 03:08:27;;;;;;;6.63;2.22;;;9.70;92.50;;;;;;5103140;28;20059;-40
2022/05/09 03:10:52;;;;;;;6.70;2.20;;;9.70;92.60;;;;;;5095200;28;20472;-40
2022/05/09 03:13:18;;;;;;;5.78;2.45;;;9.70;92.60;;;;;;5101243;28;20022;-41
2022/05/09 03:15:46;;;;;;;6.13;2.63;;;9.60;92.60;;;;;;5097841;28;20016;-41
2022/05/09 03:18:14;;;;;;;7.80;3.10;;;9.60;92.70;;;;;;5098128;28;20015;-41
2022/05/09 03:20:40;;;;;;;8.40;2.30;;;9.60;92.80;;;;;;5099559;28;20586;-42
2022/05/09 03:23:07;;;;;;;8.52;3.17;;;9.60;92.90;;;;;;5096057;28;20028;-41
2022/05/09 03:25:37;;;;;;;4.70;2.38;;;9.60;93.00;;;;;;5105560;28;20020;-41
2022/05/09 03:28:08;;;;;;;5.35;2.47;;;9.50;93.00;;;;;;5099014;28;20047;-44
2022/05/09 03:30:34;;;;;;;6.10;2.65;;;9.50;93.00;;;;;;5105794;28;20027;-41
2022/05/09 03:33:00;;;;;;;6.07;2.47;;;9.50;93.20;;;;;;5078663;28;20474;-40
2022/05/09 03:35:26;;;;;;;7.95;3.00;;;9.50;93.30;;;;;;5107199;28;20027;-41
2022/05/09 03:37:53;;;;;;;7.25;2.88;;;9.50;93.40;;;;;;5096493;28;20101;-40
2022/05/09 03:40:20;;;;;;;7.43;3.17;;;9.40;93.50;;;;;;5108237;28;20043;-41
2022/05/09 03:42:46;;;;;;;5.15;2.58;;;9.40;93.50;;;;;;5094912;28;20044;-40
2022/05/09 03:45:12;;;;;;;7.82;2.70;;;9.40;93.40;;;;;;5107938;28;20134;-39
2022/05/09 03:47:38;;;;;;;6.45;2.20;;;9.40;93.40;;;;;;5095663;28;20103;-43
2022/05/09 03:50:04;;;;;;;7.00;2.80;;;9.40;93.50;;;;;;5109129;28;20094;-41
2022/05/09 03:52:30;;;;;;;6.95;2.70;;;9.40;93.50;;;;;;5095688;28;20044;-42
2022/05/09 03:54:57;;;;;;;6.10;2.20;;;9.40;93.50;;;;;;5106749;28;20020;-41
2022/05/09 03:57:23;;;;;;;6.03;1.95;;;9.40;93.50;;;;;;5102609;28;20020;-42
2022/05/09 03:59:49;;;;;;;5.03;2.08;;;9.30;93.50;;;;;;5107782;28;20092;-42
2022/05/09 04:02:14;;;;;;;9.02;2.50;;;9.40;93.50;;;;;;5101320;28;20048;-41
2022/05/09 04:04:40;;;;;;;5.28;2.30;;;9.30;93.60;;;;;;5100818;28;20027;-41
2022/05/09 04:07:05;;;;;;;8.35;2.58;;;9.30;93.60;;;;;;5103428;28;20591;-41
2022/05/09 04:09:31;;;;;;;8.38;2.60;;;9.30;93.60;;;;;;5098718;28;20089;-41
2022/05/09 04:11:56;;;;;;;7.40;2.90;;;9.30;93.60;;;;;;5106643;28;20028;-42
2022/05/09 04:17:08;;;;;;;4.50;1.85;;;9.40;93.70;;;;;;5106684;28;20034;-42
2022/05/09 04:19:33;;;;;;;7.35;2.45;;;9.40;93.70;;;;;;5095326;28;20035;-42
2022/05/09 04:22:02;;;;;;;7.15;2.30;;;9.40;93.60;;;;;;5106678;28;20024;-41
2022/05/09 04:24:29;;;;;;;8.10;2.38;;;9.40;93.70;;;;;;5096054;28;20478;-41
2022/05/09 04:26:55;;;;;;;4.28;2.20;;;9.40;93.70;;;;;;5107440;28;20357;-41
2022/05/09 04:29:21;;;;;;;4.63;1.85;;;9.40;93.70;;;;;;5094787;28;20454;-41
2022/05/09 04:31:46;;;;;;;3.97;2.10;;;9.40;93.70;;;;;;5107346;28;20068;-40
2022/05/09 04:34:12;;;;;;;6.30;2.15;;;9.40;93.70;;;;;;5093168;28;20471;-39
2022/05/09 04:36:39;;;;;;;6.55;2.13;;;9.40;93.70;;;;;;5107045;28;20027;-40
2022/05/09 04:39:05;;;;;;;5.30;2.08;;;9.50;93.70;;;;;;5095521;28;20691;-41
2022/05/09 04:41:32;;;;;;;3.45;2.00;;;9.50;93.70;;;;;;5104901;28;20161;-41
2022/05/09 04:43:58;;;;;;;5.40;2.05;;;9.50;93.70;;;;;;5098189;28;20035;-39
2022/05/09 04:46:23;;;;;;;6.03;2.63;;;9.50;93.70;;;;;;5103283;28;20023;-40
2022/05/09 04:48:49;;;;;;;7.72;2.20;;;9.50;93.80;;;;;;5100241;28;20039;-44
2022/05/09 04:51:15;;;;;;;5.40;2.20;;;9.50;93.80;;;;;;5100494;28;20028;-45
2022/05/09 04:53:41;;;;;;;7.32;2.42;;;9.60;93.80;;;;;;5103404;28;20605;-42
2022/05/09 04:56:07;;;;;;;7.80;2.67;;;9.60;93.90;;;;;;5097606;28;20067;-41
2022/05/09 04:58:33;;;;;;;5.70;2.45;;;9.60;93.90;;;;;;5102448;28;20062;-41
2022/05/09 05:00:58;;;;;;;5.75;2.10;;;9.70;93.90;;;;;;5096047;28;20035;-42
2022/05/09 05:03:24;;;;;;;4.93;2.45;;;9.70;93.90;;;;;;5103794;28;20079;-43
2022/05/09 05:05:54;;;;;;;6.82;2.20;;;9.70;94.00;;;;;;5095357;28;20023;-43
2022/05/09 05:08:21;;;;;;;7.90;2.88;;;9.80;94.00;;;;;;5106549;28;20714;-41
2022/05/09 05:10:52;;;;;;;4.78;2.85;;;9.80;94.00;;;;;;5092419;28;20498;-42
2022/05/09 05:13:19;;;;;;;8.13;2.80;;;9.90;94.00;;;;;;5106325;28;20384;-41
2022/05/09 05:15:45;;;;;;;11.30;3.30;;;9.90;94.00;;;;;;5092871;28;20023;-42
2022/05/09 05:18:11;;;;;;;5.93;2.90;;;10.00;94.00;;;;;;5106920;28;20028;-43
2022/05/09 05:20:37;;;;;;;8.68;3.38;;;10.00;94.00;;;;;;5093099;28;20139;-42
2022/05/09 05:23:03;;;;;;;8.77;3.10;;;10.00;94.10;;;;;;5106129;28;20356;-41
2022/05/09 05:25:30;;;;;;;8.38;3.13;;;10.10;94.10;;;;;;5096064;28;20035;-43
2022/05/09 05:27:57;;;;;;;7.57;2.55;;;10.10;94.20;;;;;;5104331;28;20027;-42
2022/05/09 05:30:23;;;;;;;7.55;2.85;;;10.20;94.20;;;;;;5097671;28;20024;-42
2022/05/09 05:32:49;;;;;;;5.45;2.30;;;10.20;94.10;;;;;;5101179;28;20107;-42
2022/05/09 05:35:21;;;;;;;7.28;2.75;;;10.20;94.00;;;;;;5100633;28;20103;-41
2022/05/09 05:37:46;;;;;;;10.32;3.83;;;10.30;94.00;;;;;;5098866;28;20027;-39
2022/05/09 05:40:13;;;;;;;6.47;2.97;;;10.30;94.10;;;;;;5102948;28;20034;-42
2022/05/09 05:42:40;;;;;;;10.82;3.33;;;10.40;94.10;;;;;;5097243;28;20317;-41
2022/05/09 05:45:07;;;;;;;6.13;2.90;;;10.40;94.20;;;;;;5104234;28;20027;-43
2022/05/09 05:47:32;;;;;;;8.02;3.15;;;10.40;94.30;;;;;;5087614;28;20861;-41
2022/05/09 05:49:58;;;;;;;6.82;3.05;;;10.50;94.20;;;;;;5086284;28;20031;-42
2022/05/09 05:52:23;;;;;;;9.05;3.30;;;10.50;94.20;;;;;;5094191;28;20189;-42
2022/05/09 05:54:49;;;;;;;9.32;3.67;;;10.50;94.20;;;;;;5082173;28;20027;-43
2022/05/09 05:57:29;;;;;;;6.75;2.45;;;10.60;94.20;;;;;;5091699;28;20131;-40
2022/05/09 05:59:58;;;;;;;6.60;3.17;;;10.70;94.10;;;;;;5064369;28;20751;-42
2022/05/09 06:02:24;;;;;;;6.07;2.67;;;10.70;94.10;;;;;;5096756;28;20032;-42
2022/05/09 06:04:50;;;;;;;5.43;2.30;;;10.70;94.10;;;;;;5084695;28;20441;-43
2022/05/09 06:07:16;;;;;;;7.30;3.00;;;10.80;94.20;;;;;;5099280;28;20065;-40
2022/05/09 06:09:46;;;;;;;8.15;3.30;;;10.80;94.20;;;;;;5083948;28;20036;-43
2022/05/09 06:12:14;;;;;;;6.50;2.95;;;10.90;94.20;;;;;;5095221;28;20046;-41
2022/05/09 06:14:40;;;;;;;6.85;2.90;;;11.00;94.10;;;;;;5085298;28;20038;-41
2022/05/09 06:17:07;;;;;;;4.03;2.42;;;11.00;94.10;;;;;;5093612;28;20059;-41
2022/05/09 06:19:33;;;;;;;5.03;2.67;;;11.10;94.10;;;;;;5086413;28;20035;-42
2022/05/09 06:21:59;;;;;;;5.78;2.80;;;11.10;94.10;;;;;;5091100;28;20023;-42
2022/05/09 06:24:25;;;;;;;6.93;2.75;;;11.10;94.10;;;;;;5089439;28;20032;-41
2022/05/09 06:26:51;;;;;;;5.10;2.22;;;11.20;94.10;;;;;;5087813;28;20028;-41
2022/05/09 06:29:18;;;;;;;5.57;2.50;;;11.20;94.30;;;;;;5091847;28;20040;-39
2022/05/09 06:31:44;;;;;;;6.22;3.15;;;11.30;94.10;;;;;;5085510;28;20095;-39
2022/05/09 06:34:12;;;;;;;5.45;2.70;;;11.40;94.30;;;;;;5094575;28;20032;-41
2022/05/09 06:36:38;;;;;;;8.02;2.63;;;11.40;94.00;;;;;;5086347;28;20019;-41
2022/05/09 06:39:06;;;;;;;7.30;3.15;;;11.50;94.00;;;;;;5096001;28;20591;-44
2022/05/09 06:41:32;;;;;;;5.85;2.88;;;11.50;94.00;;;;;;5102939;28;20622;-42
2022/05/09 06:43:57;;;;;;;4.35;2.50;;;11.60;94.00;;;;;;5093108;28;20057;-41
2022/05/09 06:46:23;;;;;;;6.30;2.55;;;11.60;94.00;;;;;;5104952;28;20023;-42
2022/05/09 06:48:48;;;;;;;6.22;2.33;;;11.70;94.00;;;;;;5091024;28;20043;-41
2022/05/09 06:51:14;;;;;;;7.75;2.70;;;11.70;93.90;;;;;;5105457;28;20035;-43
2022/05/09 06:53:40;;;;;;;8.38;2.50;;;11.80;93.90;;;;;;5092762;28;20201;-41
2022/05/09 06:56:06;;;;;;;8.00;3.15;;;11.90;93.90;;;;;;5103847;28;20532;-40
2022/05/09 06:58:32;;;;;;;9.52;3.25;;;12.00;93.90;;;;;;5091784;28;20039;-41
2022/05/09 07:00:58;;;;;;;8.77;2.78;;;12.00;93.90;;;;;;5104109;28;20877;-41
2022/05/09 07:03:25;;;;;;;4.75;2.08;;;12.00;93.80;;;;;;5096557;28;20096;-41
2022/05/09 07:05:51;;;;;;;6.97;2.47;;;12.10;93.80;;;;;;5099347;28;20015;-41
2022/05/09 07:08:19;;;;;;;5.28;2.20;;;12.20;93.80;;;;;;5099526;28;20027;-40
2022/05/09 07:10:44;;;;;;;7.28;2.97;;;12.20;93.80;;;;;;5096358;28;20463;-42
2022/05/09 07:13:10;;;;;;;6.18;2.70;;;12.20;93.70;;;;;;5102523;28;20027;-41
2022/05/09 07:15:36;;;;;;;5.80;2.50;;;12.30;93.70;;;;;;5093451;28;20027;-42
2022/05/09 07:18:03;;;;;;;5.40;2.40;;;12.30;93.60;;;;;;5103388;28;20509;-40
2022/05/09 07:20:31;;;;;;;8.20;2.47;;;12.40;93.60;;;;;;5093085;28;20034;-40
2022/05/09 07:23:07;;;;;;;4.03;2.60;;;12.40;93.60;;;;;;5103076;28;20044;-41
2022/05/09 07:25:33;;;;;;;7.28;2.65;;;12.50;93.60;;;;;;5092703;28;20038;-41
2022/05/09 07:27:59;;;;;;;4.35;2.22;;;12.50;93.60;;;;;;5084881;28;20036;-40
2022/05/09 07:30:25;;;;;;;4.07;2.05;;;12.60;93.50;;;;;;5096007;28;20650;-42
2022/05/09 07:32:52;;;;;;;5.82;2.15;;;12.70;93.50;;;;;;5084266;28;20684;-42
2022/05/09 07:35:18;;;;;;;7.45;2.88;;;12.70;93.40;;;;;;5096688;28;20115;-40
2022/05/09 07:37:46;;;;;;;5.60;2.83;;;12.80;93.40;;;;;;5083029;28;20028;-41
2022/05/09 07:40:13;;;;;;;4.13;2.08;;;12.80;93.30;;;;;;5095655;28;20040;-41
2022/05/09 07:42:41;;;;;;;4.38;2.33;;;12.90;93.30;;;;;;5084576;28;20639;-41
2022/05/09 07:45:08;;;;;;;5.50;2.30;;;12.90;93.30;;;;;;5093135;28;20138;-43
2022/05/09 07:47:33;;;;;;;7.45;2.95;;;13.00;93.30;;;;;;5086242;28;20020;-40
2022/05/09 07:49:59;;;;;;;4.55;2.30;;;13.00;93.30;;;;;;5091356;28;20469;-43
2022/05/09 07:52:24;;;;;;;6.18;2.60;;;13.10;93.30;;;;;;5088431;28;20024;-41
2022/05/09 07:54:50;;;;;;;6.40;2.72;;;13.10;93.20;;;;;;5088476;28;20062;-40
2022/05/09 07:57:17;;;;;;;6.25;2.60;;;13.20;93.20;;;;;;5092091;28;20020;-41
2022/05/09 07:59:42;;;;;;;5.85;2.60;;;13.20;93.20;;;;;;5099994;28;20045;-40
2022/05/09 08:02:08;;;;;;;5.20;2.70;;;13.20;93.20;;;;;;5094214;28;20036;-41
2022/05/09 08:04:34;;;;;;;8.00;2.75;;;13.30;93.20;;;;;;5102227;28;20032;-41
2022/05/09 08:07:01;;;;;;;6.65;2.53;;;13.40;93.20;;;;;;5093305;28;20016;-41
2022/05/09 08:09:27;;;;;;;6.85;2.72;;;13.40;93.20;;;;;;5103245;28;20035;-39
2022/05/09 08:11:53;;;;;;;9.18;2.40;;;13.50;93.20;;;;;;5094986;28;20019;-40
2022/05/09 08:14:19;;;;;;;6.18;2.60;;;13.50;93.10;;;;;;5108093;28;20051;-40
2022/05/09 08:16:44;;;;;;;4.18;2.13;;;13.50;93.10;;;;;;5094490;28;20111;-41
2022/05/09 08:19:11;;;;;;;7.65;2.60;;;13.60;93.10;;;;;;5107219;28;20082;-40
2022/05/09 08:21:37;;;;;;;5.25;2.50;;;13.70;93.00;;;;;;5094835;28;20824;-42
2022/05/09 08:24:05;;;;;;;4.68;2.55;;;13.80;93.00;;;;;;5087937;28;20024;-42
2022/05/09 08:26:31;;;;;;;6.03;2.63;;;13.80;93.00;;;;;;5096340;28;20023;-42
2022/05/09 08:28:56;;;;;;;5.63;2.53;;;13.90;93.00;;;;;;5090428;28;20024;-42
2022/05/09 08:31:23;;;;;;;6.30;2.70;;;13.90;92.90;;;;;;5093397;28;20378;-42
2022/05/09 08:33:51;;;;;;;4.57;2.10;;;14.00;92.90;;;;;;5090881;28;20039;-41
2022/05/09 08:39:05;;;;;;;5.00;2.75;;;14.10;92.90;;;;;;5091940;28;20047;-39
2022/05/09 08:41:41;;;;;;;4.75;2.40;;;14.20;92.90;;;;;;5090761;28;20114;-40
2022/05/09 08:44:44;;;;;;;5.03;2.38;;;14.30;92.80;;;;;;5093104;28;20130;-41
2022/05/09 08:47:13;;;;;;;;;;;14.30;92.70;;;;;;5096052;28;20024;-42
2022/05/09 08:49:47;;;;;;;4.10;1.70;;;14.40;92.60;;;;;;5089502;28;19915;-39
2022/05/09 08:52:39;;;;;;;3.17;1.90;;;14.40;92.50;;;;;;5094897;28;20092;-40
2022/05/09 08:55:05;;;;;;;3.80;1.95;;;14.50;92.40;;;;;;5086824;28;20544;-43
2022/05/09 08:57:40;;;;;;;5.53;2.20;;;14.60;92.30;;;;;;5094452;28;20023;-41
2022/05/09 09:00:09;;;;;;;4.45;2.08;;;14.70;92.20;;;;;;5066484;28;20098;-38
2022/05/09 09:02:44;;;;;;;5.30;1.85;;;14.80;92.10;;;;;;5086859;28;20252;-41
2022/05/09 09:05:12;;;;;;;3.15;1.75;;;14.90;92.00;;;;;;5089428;28;20042;-39
2022/05/09 09:07:59;;;;;;;6.63;2.30;;;14.90;91.80;;;;;;5094184;28;20031;-41
2022/05/09 09:10:35;;;;;;;5.50;2.45;;;15.00;91.60;;;;;;5086881;28;20036;-43
2022/05/09 09:13:06;;;;;;;4.68;2.40;;;15.20;91.30;;;;;;5095512;28;20429;-42
2022/05/09 09:15:52;;;;;;;3.50;2.00;;;15.30;91.00;;;;;;5087381;28;20836;-42
2022/05/09 09:18:33;;;;;;;4.55;2.00;;;15.50;90.80;;;;;;5095619;28;20036;-42
2022/05/09 09:21:04;;;;;;;5.53;2.30;;;15.50;90.70;;;;;;5086031;28;20113;-41
2022/05/09 09:24:06;;;;;;;2.97;1.60;;;15.60;90.50;;;;;;5094920;28;20016;-39
2022/05/09 09:26:44;;;;;;;4.78;2.10;;;15.70;90.30;;;;;;5075411;28;20034;-42
2022/05/09 09:29:19;;;;;;;3.25;1.88;;;15.70;90.30;;;;;;5100177;28;20019;-42
2022/05/09 09:32:05;;;;;;;4.88;2.13;;;15.80;90.30;;;;;;5086088;28;20040;-41
2022/05/09 09:34:52;;;;;;;4.00;2.00;;;15.80;90.20;;;;;;5092713;28;20383;-41
2022/05/09 09:37:38;;;;;;;3.90;2.10;;;15.90;90.00;;;;;;5104860;28;20046;-41
2022/05/09 09:40:06;;;;;;;3.97;1.60;;;15.90;89.70;;;;;;5094768;28;20135;-42
2022/05/09 09:42:32;;;;;;;2.92;1.67;;;15.90;89.40;;;;;;5104614;28;20019;-41
2022/05/09 09:45:00;;;;;;;4.78;1.92;;;15.90;89.00;;;;;;5093135;28;20031;-42
2022/05/09 09:47:27;;;;;;;3.67;1.85;;;16.00;88.70;;;;;;5105118;28;20034;-42
2022/05/09 09:50:13;;;;;;;2.80;1.70;;;16.10;88.60;;;;;;5093356;28;20020;-43
2022/05/09 09:52:48;;;;;;;2.60;1.63;;;16.20;88.20;;;;;;5105352;28;20062;-41
2022/05/09 09:55:25;;;;;;;3.20;1.38;;;16.30;88.40;;;;;;5097592;28;20350;-42
2022/05/09 09:57:51;;;;;;;3.30;1.40;;;16.40;86.90;;;;;;5085696;28;20032;-43
2022/05/09 10:00:34;;;;;;;3.08;1.48;;;16.50;86.70;;;;;;5097488;28;20058;-42
2022/05/09 10:03:21;;;;;;;2.55;1.48;;;16.60;86.10;;;;;;5085273;28;20051;-39
2022/05/09 10:05:48;;;;;;;3.25;1.52;;;16.70;85.80;;;;;;5089204;28;20077;-39
2022/05/09 10:08:36;;;;;;;2.75;1.33;;;16.80;85.80;;;;;;5105678;28;20106;-42
2022/05/09 10:11:10;;;;;;;2.75;1.20;;;16.80;85.20;;;;;;5093482;28;20036;-41
2022/05/09 10:13:45;;;;;;;2.30;1.40;;;16.90;85.10;;;;;;5084704;28;20028;-41
2022/05/09 10:16:33;;;;;;;4.97;1.60;;;16.90;85.00;;;;;;5093365;28;20070;-42
2022/05/09 10:19:07;;;;;;;2.75;1.50;;;17.00;84.90;;;;;;5085889;28;20050;-42
2022/05/09 10:24:48;;;;;;;3.97;1.85;;;17.00;84.40;;;;;;5086245;28;20038;-46
2022/05/09 10:27:22;;;;;;;2.55;1.52;;;17.00;84.10;;;;;;5087850;28;20055;-42
2022/05/09 10:29:55;;;;;;;4.38;1.48;;;17.10;84.10;;;;;;5102686;28;20035;-40
2022/05/09 10:32:28;;;;;;;4.35;2.10;;;17.10;84.00;;;;;;5095061;28;20047;-40
2022/05/09 10:35:05;;;;;;;2.75;1.58;;;17.20;83.60;;;;;;5091779;28;20024;-41
2022/05/09 10:37:54;;;;;;;2.10;1.40;;;17.20;83.70;;;;;;5092952;28;20024;-41
2022/05/09 10:40:43;;;;;;;3.67;1.60;;;17.20;83.70;;;;;;5038320;28;20036;-43
2022/05/09 10:43:16;;;;;;;3.55;1.70;;;17.20;83.40;;;;;;5097447;28;20135;-41
2022/05/09 10:45:48;;;;;;;3.85;1.77;;;17.40;83.40;;;;;;5098565;28;20464;-42
2022/05/09 10:48:34;;;;;;;3.20;1.88;;;17.40;83.20;;;;;;5098473;28;20038;-40
2022/05/09 10:51:12;;;;;;;2.92;1.67;;;17.60;83.00;;;;;;5098546;28;20044;-42
2022/05/09 10:53:53;;;;;;;4.30;2.05;;;17.70;82.80;;;;;;5099999;28;20072;-43
2022/05/09 10:56:37;;;;;;;3.40;1.98;;;17.80;82.50;;;;;;5096927;28;20016;-40
2022/05/09 10:59:07;;;;;;;4.43;1.98;;;17.80;82.70;;;;;;5091090;28;20036;-43
2022/05/09 11:01:45;;;;;;;2.42;1.52;;;17.80;82.50;;;;;;5091600;28;20030;-40
2022/05/09 11:04:13;;;;;;;4.47;1.52;;;17.90;82.50;;;;;;5087227;28;20043;-41
2022/05/09 11:07:12;;;;;;;2.53;1.45;;;17.90;82.50;;;;;;5091393;28;20019;-41
2022/05/09 11:10:22;;;;;;;4.28;1.90;;;18.00;82.40;;;;;;5063427;28;20036;-40
2022/05/09 11:13:09;;;;;;;5.05;1.85;;;18.20;82.00;;;;;;5039372;28;20120;-43
2022/05/09 11:16:08;;;;;;;4.72;1.85;;;18.40;81.60;;;;;;5083465;28;20363;-42
2022/05/09 11:18:50;;;;;;;3.83;1.60;;;18.40;81.40;;;;;;5095703;28;20491;-42
2022/05/09 11:21:30;;;;;;;3.88;1.77;;;18.50;81.40;;;;;;5086024;28;20047;-41
2022/05/09 11:24:03;;;;;;;2.85;1.58;;;18.50;81.50;;;;;;5084410;28;20024;-43
2022/05/09 11:26:39;;;;;;;3.35;1.30;;;18.50;81.50;;;;;;5102950;28;20066;-41
2022/05/09 11:29:29;;;;;;;2.72;1.50;;;18.60;81.50;;;;;;5083285;28;20032;-41
2022/05/09 11:32:06;;;;;;;1.95;1.25;;;18.60;81.00;;;;;;5101349;28;20053;-42
2022/05/09 11:34:50;;;;;;;3.33;1.30;;;18.80;80.80;;;;;;5096289;28;20542;-42
2022/05/09 11:37:44;;;;;;;3.25;1.15;;;18.90;79.90;;;;;;5098755;28;20051;-41
2022/05/09 11:40:45;;;;;;;3.65;1.60;;;19.10;79.60;;;;;;5100176;28;20032;-41
2022/05/09 11:43:45;;;;;;;4.25;1.45;;;19.20;79.00;;;;;;5096524;28;20105;-42
2022/05/09 11:46:38;;;;;;;4.28;1.48;;;19.20;78.40;;;;;;4982554;28;20130;-42
2022/05/09 11:49:04;;;;;;;;;;;19.20;78.20;;;;;;5091942;28;20059;-42
2022/05/09 11:51:32;;;;;;;3.13;1.40;;;19.30;77.90;;;;;;5105976;28;20015;-42
2022/05/09 11:54:02;;;;;;;2.15;1.50;;;19.20;77.90;;;;;;5093955;28;20089;-42
2022/05/09 11:56:30;;;;;;;3.50;1.40;;;19.20;78.10;;;;;;5106907;28;20055;-41
2022/05/09 11:58:56;;;;;;;2.83;1.25;;;19.20;77.70;;;;;;5104318;28;20023;-40
2022/05/09 12:02:00;;;;;;;3.28;1.60;;;19.20;77.40;;;;;;5108182;28;20050;-42
2022/05/09 12:04:43;;;;;;;2.28;1.45;;;19.30;77.00;;;;;;5098093;28;20036;-41
2022/05/09 12:07:21;;;;;;;3.83;1.67;;;19.30;76.80;;;;;;5087730;28;20040;-41
2022/05/09 12:10:15;;;;;;;3.63;1.27;;;19.40;76.40;;;;;;5094362;28;20039;-41
2022/05/09 12:12:54;;;;;;;4.78;1.70;;;19.50;76.30;;;;;;5106352;28;20032;-41
2022/05/09 12:15:23;;;;;;;4.57;1.50;;;19.60;76.40;;;;;;5096109;28;20413;-42
2022/05/09 12:18:18;;;;;;;2.13;1.20;;;19.60;76.20;;;;;;5106390;28;20086;-42
2022/05/09 12:20:46;;;;;;;4.18;1.80;;;19.60;76.40;;;;;;5085627;28;20674;-42
2022/05/09 12:23:32;;;;;;;3.40;1.55;;;19.70;76.00;;;;;;5106086;28;20055;-42
2022/05/09 12:26:03;;;;;;;4.03;1.75;;;19.80;76.20;;;;;;5085371;28;20024;-39
2022/05/09 12:28:39;;;;;;;3.10;1.48;;;19.80;76.30;;;;;;5105559;28;20020;-42
2022/05/09 12:31:06;;;;;;;3.30;1.33;;;19.80;76.50;;;;;;5085923;28;20030;-42
2022/05/09 12:33:50;;;;;;;3.58;1.50;;;19.90;76.60;;;;;;5105050;28;20050;-41
2022/05/09 12:36:20;;;;;;;2.75;1.50;;;19.90;76.50;;;;;;5085644;28;20035;-42
2022/05/09 12:38:49;;;;;;;2.92;1.73;;;20.10;76.20;;;;;;5105122;28;20110;-41
2022/05/09 12:41:16;;;;;;;4.40;1.92;;;20.20;75.20;;;;;;5095499;28;20096;-42
2022/05/09 12:44:01;;;;;;;4.07;1.50;;;20.40;75.10;;;;;;5105430;28;20023;-41
2022/05/09 12:46:36;;;;;;;4.25;1.50;;;20.50;75.10;;;;;;5094599;28;20415;-41
2022/05/09 12:49:06;;;;;;;3.58;1.92;;;20.50;75.00;;;;;;5105637;28;20129;-41
2022/05/09 12:51:39;;;;;;;3.65;1.40;;;20.50;74.60;;;;;;5095049;28;20102;-42
2022/05/09 12:54:12;;;;;;;3.63;1.60;;;20.60;74.70;;;;;;5104356;28;20118;-42
2022/05/09 12:56:47;;;;;;;1.70;1.30;;;20.60;74.50;;;;;;5097526;28;20049;-42
2022/05/09 12:59:14;;;;;;;4.35;1.80;;;20.70;74.70;;;;;;5096262;28;20032;-42
2022/05/09 13:01:50;;;;;;;4.05;1.30;;;20.70;74.50;;;;;;5094610;28;20114;-42
2022/05/09 13:04:28;;;;;;;2.92;1.60;;;20.70;74.50;;;;;;5105878;28;20347;-42
2022/05/09 13:06:57;;;;;;;2.92;1.60;;;20.70;74.40;;;;;;5094406;28;20024;-41
2022/05/09 13:09:25;;;;;;;2.95;1.75;;;20.80;74.20;;;;;;5086947;28;20047;-42
2022/05/09 13:12:10;;;;;;;3.17;1.48;;;20.80;74.10;;;;;;5093491;28;20035;-41
2022/05/09 13:14:44;;;;;;;2.38;1.25;;;20.80;74.20;;;;;;5104581;28;20027;-41
2022/05/09 13:17:19;;;;;;;3.20;1.40;;;20.80;74.20;;;;;;5094626;28;20030;-41
2022/05/09 13:19:50;;;;;;;5.13;2.20;;;20.90;74.20;;;;;;5086249;28;20071;-40
2022/05/09 13:22:35;;;;;;;3.47;1.63;;;21.00;74.20;;;;;;5093504;28;20043;-41
2022/05/09 13:25:10;;;;;;;3.80;1.35;;;21.10;73.90;;;;;;5105570;28;20135;-41